createdAt,value
2022-09-16T00:00:55.384Z,99999.88
2022-09-16T00:03:23.137Z,99991.66
2022-09-16T00:05:53.323Z,99994.34
2022-09-16T00:08:23.283Z,99992.94
2022-09-16T00:10:52.393Z,99996.44
2022-09-16T00:13:21.024Z,99988.13
2022-09-16T00:15:51.827Z,99988.88
2022-09-16T00:18:20.463Z,99986.19
2022-09-16T00:20:50.159Z,99982.56
2022-09-16T00:23:18.075Z,99981.75
2022-09-16T00:25:51.975Z,99972.66
2022-09-16T00:28:20.200Z,99987.72
2022-09-16T00:30:47.863Z,99984.78
2022-09-16T00:33:17.309Z,99983.88
2022-09-16T00:35:45.159Z,99982.81
2022-09-16T00:38:13.904Z,99984.34
2022-09-16T00:40:47.177Z,99987.75
2022-09-16T00:43:15.992Z,99987.75
2022-09-16T00:45:45.374Z,99996.78
2022-09-16T00:51:57.184Z,100002.06
2022-09-16T00:54:25.852Z,99996.09
2022-09-16T00:57:57.796Z,100007.91
2022-09-16T01:00:27.008Z,99998.44
2022-09-16T01:02:55.267Z,100002.53
2022-09-16T01:05:25.980Z,100000.88
2022-09-16T01:07:55.459Z,99999.00
2022-09-16T01:10:25.076Z,100005.78
2022-09-16T01:12:57.357Z,99997.16
2022-09-16T01:15:31.902Z,100002.53
2022-09-16T01:18:10.304Z,100000.88
2022-09-16T01:21:04.888Z,99996.69
2022-09-16T01:24:08.380Z,99992.34
2022-09-16T01:27:05.295Z,99995.97
2022-09-16T01:29:40.489Z,99993.75
2022-09-16T01:32:13.641Z,99997.69
2022-09-16T01:34:50.588Z,99991.50
2022-09-16T01:37:28.422Z,100000.47
2022-09-16T01:40:03.118Z,99992.09
2022-09-16T01:42:37.922Z,99986.41
2022-09-16T01:45:08.411Z,99979.75
2022-09-16T01:47:45.900Z,99984.78
2022-09-16T01:50:19.739Z,99993.69
2022-09-16T01:52:52.909Z,99992.03
2022-09-16T01:55:25.459Z,99981.31
2022-09-16T01:57:56.457Z,99988.31
2022-09-16T02:00:25.353Z,99998.72
2022-09-16T02:02:57.507Z,99994.16
2022-09-16T02:05:28.260Z,99986.69
2022-09-16T02:08:00.218Z,99994.25
2022-09-16T02:10:32.068Z,99995.31
2022-09-16T02:13:04.272Z,99994.16
2022-09-16T02:15:38.891Z,99986.69
2022-09-16T02:18:12.148Z,99984.34
2022-09-16T02:20:42.846Z,99987.34
2022-09-16T02:23:14.203Z,99983.75
2022-09-16T02:25:43.529Z,99990.41
2022-09-16T02:28:13.495Z,99989.94
2022-09-16T02:30:43.577Z,99996.28
2022-09-16T02:33:14.369Z,99988.31
2022-09-16T02:35:43.439Z,99980.00
2022-09-16T02:38:15.271Z,99988.31
2022-09-16T02:40:47.972Z,99994.84
2022-09-16T02:43:16.541Z,99998.09
2022-09-16T02:45:48.474Z,99992.25
2022-09-16T02:48:23.821Z,99983.72
2022-09-16T02:50:54.935Z,99989.19
2022-09-16T02:53:31.992Z,99982.66
2022-09-16T02:56:03.115Z,99982.34
2022-09-16T02:58:31.014Z,99983.63
2022-09-16T03:00:59.277Z,99979.41
2022-09-16T03:03:28.287Z,99976.03
2022-09-16T03:06:12.313Z,99979.41
2022-09-16T03:08:40.871Z,99974.19
2022-09-16T03:11:19.558Z,99979.19
2022-09-16T03:13:54.964Z,99981.66
2022-09-16T03:16:26.322Z,99970.91
2022-09-16T03:19:04.685Z,99976.50
2022-09-16T03:21:37.381Z,99981.31
2022-09-16T03:24:14.414Z,99968.69
2022-09-16T03:26:48.213Z,99968.94
2022-09-16T03:29:20.680Z,99975.72
2022-09-16T03:31:52.743Z,99973.63
2022-09-16T03:34:27.713Z,99965.91
2022-09-16T03:36:59.061Z,99982.75
2022-09-16T03:39:27.671Z,99973.03
2022-09-16T03:41:56.476Z,99965.25
2022-09-16T03:44:33.071Z,99970.78
2022-09-16T03:47:00.641Z,99966.13
2022-09-16T03:49:30.564Z,99971.19
2022-09-16T03:51:58.606Z,99980.53
2022-09-16T03:54:27.371Z,99967.53
2022-09-16T03:56:56.188Z,99974.09
2022-09-16T03:59:23.905Z,99974.09
2022-09-16T04:01:51.836Z,99956.38
2022-09-16T04:04:21.852Z,99965.44
2022-09-16T04:06:51.007Z,99958.34
2022-09-16T04:09:18.615Z,99957.28
2022-09-16T04:11:46.671Z,99951.53
2022-09-16T04:14:14.661Z,99960.53
2022-09-16T04:16:45.143Z,99956.00
2022-09-16T04:19:15.200Z,99964.41
2022-09-16T04:21:44.131Z,99958.09
2022-09-16T04:24:14.364Z,99952.63
2022-09-16T04:26:43.288Z,99959.16
2022-09-16T04:29:11.293Z,99961.75
2022-09-16T04:31:40.020Z,99955.91
2022-09-16T04:34:08.012Z,99944.69
2022-09-16T04:36:36.680Z,99949.84
2022-09-16T04:39:05.052Z,99952.63
2022-09-16T04:41:36.696Z,99948.91
2022-09-16T04:44:04.718Z,99950.91
2022-09-16T04:46:34.578Z,99942.84
2022-09-16T04:49:03.640Z,99942.38
2022-09-16T04:51:32.351Z,99945.84
2022-09-16T04:54:01.624Z,99951.84
2022-09-16T04:56:31.488Z,99956.84
2022-09-16T04:59:03.600Z,99951.47
2022-09-16T05:01:33.909Z,99951.94
2022-09-16T05:04:03.946Z,99952.75
2022-09-16T05:06:35.476Z,99955.44
2022-09-16T05:09:04.031Z,99952.28
2022-09-16T05:12:36.685Z,99955.91
2022-09-16T05:15:07.761Z,99958.00
2022-09-16T05:17:52.098Z,99956.94
2022-09-16T05:20:20.497Z,99952.84
2022-09-16T05:22:51.139Z,99951.59
2022-09-16T05:25:19.067Z,99951.00
2022-09-16T05:27:48.098Z,99948.66
2022-09-16T05:30:23.886Z,99949.56
2022-09-16T05:32:54.455Z,99947.25
2022-09-16T05:35:22.300Z,99944.56
2022-09-16T05:37:50.728Z,99955.41
2022-09-16T05:40:19.516Z,99958.69
2022-09-16T05:42:49.754Z,99952.63
2022-09-16T05:45:24.832Z,99959.16
2022-09-16T05:47:54.646Z,99948.53
2022-09-16T05:50:22.659Z,99963.22
2022-09-16T05:52:51.442Z,99954.47
2022-09-16T05:55:19.357Z,99962.63
2022-09-16T05:57:47.330Z,99966.97
2022-09-16T06:00:15.944Z,99968.47
2022-09-16T06:02:49.220Z,99970.34
2022-09-16T06:05:17.846Z,99962.63
2022-09-16T06:07:46.525Z,99976.88
2022-09-16T06:10:14.156Z,99964.53
2022-09-16T06:12:41.630Z,99966.72
2022-09-16T06:15:10.144Z,99975.31
2022-09-16T06:17:37.792Z,99972.03
2022-09-16T06:20:13.876Z,99979.03
2022-09-16T06:22:42.178Z,99977.25
2022-09-16T06:25:10.354Z,99973.63
2022-09-16T06:27:38.662Z,99970.59
2022-09-16T06:30:07.093Z,99969.25
2022-09-16T06:32:34.978Z,99973.84
2022-09-16T06:35:03.601Z,99968.50
2022-09-16T06:37:32.602Z,99976.38
2022-09-16T06:40:01.230Z,99975.00
2022-09-16T06:42:30.128Z,99965.31
2022-09-16T06:44:58.848Z,99959.28
2022-09-16T06:47:26.994Z,99951.59
2022-09-16T06:49:54.756Z,99955.72
2022-09-16T06:52:23.688Z,99948.34
2022-09-16T06:54:52.692Z,99960.31
2022-09-16T06:57:23.060Z,99955.72
2022-09-16T06:59:50.940Z,99953.72
2022-09-16T07:02:19.032Z,99956.41
2022-09-16T07:04:46.702Z,99960.22
2022-09-16T07:07:14.628Z,99953.56
2022-09-16T07:09:43.223Z,99963.38
2022-09-16T07:12:17.429Z,99959.28
2022-09-16T07:14:46.954Z,99965.31
2022-09-16T07:17:15.852Z,99970.69
2022-09-16T07:19:44.598Z,99965.78
2022-09-16T07:22:12.423Z,99964.75
2022-09-16T07:24:40.083Z,99966.50
2022-09-16T07:27:07.661Z,99971.59
2022-09-16T07:29:37.577Z,99973.66
2022-09-16T07:32:05.420Z,99970.09
2022-09-16T07:34:33.046Z,99970.13
2022-09-16T07:37:00.751Z,99972.72
2022-09-16T07:39:28.607Z,99977.16
2022-09-16T07:41:57.383Z,99981.88
2022-09-16T07:44:25.872Z,99983.25
2022-09-16T07:46:54.864Z,99983.00
2022-09-16T07:49:22.686Z,99982.78
2022-09-16T07:51:50.213Z,99988.41
2022-09-16T07:54:19.216Z,99982.56
2022-09-16T07:56:46.808Z,99988.66
2022-09-16T07:59:18.523Z,99984.59
2022-09-16T08:01:51.410Z,99990.66
2022-09-16T08:04:21.567Z,99997.53
2022-09-16T08:06:49.647Z,99990.16
2022-09-16T08:12:06.582Z,99996.25
2022-09-16T08:14:35.371Z,99992.19
2022-09-16T08:17:03.872Z,99988.44
2022-09-16T08:19:35.482Z,99989.94
2022-09-16T08:22:04.412Z,99993.56
2022-09-16T08:24:32.752Z,100000.25
2022-09-16T08:27:01.220Z,99998.19
2022-09-16T08:29:29.850Z,99999.59
2022-09-16T08:31:57.714Z,99998.00
2022-09-16T08:34:25.612Z,100002.38
2022-09-16T08:36:56.647Z,100003.09
2022-09-16T08:39:24.379Z,100006.56
2022-09-16T08:42:03.435Z,99998.13
2022-09-16T08:44:36.865Z,99998.88
2022-09-16T08:47:12.575Z,99996.16
2022-09-16T08:49:45.729Z,100006.91
2022-09-16T08:52:24.771Z,100006.22
2022-09-16T08:54:54.592Z,100011.75
2022-09-16T08:57:25.890Z,100005.41
2022-09-16T08:59:56.198Z,100006.22
2022-09-16T09:02:35.323Z,100003.03
2022-09-16T09:05:04.515Z,100005.97
2022-09-16T09:07:42.618Z,100017.88
2022-09-16T09:10:19.786Z,100007.00
2022-09-16T09:12:51.808Z,100006.41
2022-09-16T09:15:30.584Z,100010.72
2022-09-16T09:18:08.215Z,100013.63
2022-09-16T09:20:45.783Z,100006.78
2022-09-16T09:23:23.924Z,100003.81
2022-09-16T09:25:56.692Z,99998.03
2022-09-16T09:28:41.757Z,100006.56
2022-09-16T09:31:16.010Z,100007.59
2022-09-16T09:33:48.362Z,100005.91
2022-09-16T09:36:38.520Z,100003.09
2022-09-16T09:39:36.579Z,100000.28
2022-09-16T09:42:10.496Z,99996.72
2022-09-16T09:44:46.427Z,99987.19
2022-09-16T09:47:17.950Z,100010.94
2022-09-16T09:49:48.809Z,100011.63
2022-09-16T09:52:19.786Z,100017.34
2022-09-16T09:54:54.105Z,99997.78
2022-09-16T09:57:28.133Z,99998.88
2022-09-16T10:00:00.855Z,99993.88
2022-09-16T10:02:29.672Z,99992.94
2022-09-16T10:04:57.483Z,99994.09
2022-09-16T10:07:28.570Z,99989.13
2022-09-16T10:10:03.540Z,99981.22
2022-09-16T10:12:32.604Z,100011.31
2022-09-16T10:15:00.611Z,100013.31
2022-09-16T10:17:30.393Z,100004.03
2022-09-16T10:20:00.161Z,99984.16
2022-09-16T10:22:29.801Z,99978.53
2022-09-16T10:25:00.466Z,99980.66
2022-09-16T10:27:30.245Z,99974.53
2022-09-16T10:30:06.420Z,99980.78
2022-09-16T10:32:35.488Z,99967.44
2022-09-16T10:35:08.203Z,99963.97
2022-09-16T10:37:36.047Z,99965.25
2022-09-16T10:40:07.768Z,99963.97
2022-09-16T10:42:35.796Z,99960.19
2022-09-16T10:45:09.871Z,99962.88
2022-09-16T10:47:39.010Z,99975.84
2022-09-16T10:50:07.964Z,99989.31
2022-09-16T10:52:43.735Z,99990.75
2022-09-16T10:55:23.216Z,99970.66
2022-09-16T10:57:51.925Z,99953.63
2022-09-16T11:00:22.288Z,99963.97
2022-09-16T11:03:32.175Z,99953.66
2022-09-16T11:06:08.166Z,99953.38
2022-09-16T11:08:46.590Z,99960.16
2022-09-16T11:11:24.501Z,99946.13
2022-09-16T11:13:59.068Z,99951.22
2022-09-16T11:16:38.587Z,99953.72
2022-09-16T11:19:11.702Z,99937.97
2022-09-16T11:21:55.888Z,99936.34
2022-09-16T11:24:49.090Z,99945.38
2022-09-16T11:27:25.791Z,99930.03
2022-09-16T11:30:02.734Z,99946.38
2022-09-16T11:32:40.022Z,99949.91
2022-09-16T11:35:24.528Z,99964.78
2022-09-16T11:37:57.161Z,99960.63
2022-09-16T11:40:32.833Z,99969.34
2022-09-16T11:43:32.762Z,99966.06
2022-09-16T11:46:06.787Z,99956.13
2022-09-16T11:48:43.224Z,99944.75
2022-09-16T11:51:20.201Z,99956.88
2022-09-16T11:54:02.432Z,99954.25
2022-09-16T11:56:36.715Z,99946.56
2022-09-16T11:59:14.112Z,99966.66
2022-09-16T12:01:44.610Z,99950.41
2022-09-16T12:04:19.985Z,99959.03
2022-09-16T12:06:54.220Z,99949.84
2022-09-16T12:09:28.298Z,99941.13
2022-09-16T12:12:00.805Z,99955.53
2022-09-16T12:14:35.092Z,99966.69
2022-09-16T12:17:05.941Z,99955.75
2022-09-16T12:19:37.065Z,99946.88
2022-09-16T12:22:07.911Z,99951.53
2022-09-16T12:24:41.446Z,99945.56
2022-09-16T12:27:14.491Z,99942.16
2022-09-16T12:29:49.831Z,99938.41
2022-09-16T12:32:22.656Z,99937.38
2022-09-16T12:34:55.767Z,99933.00
2022-09-16T12:37:41.397Z,99933.66
2022-09-16T12:40:17.000Z,99922.47
2022-09-16T12:43:29.189Z,99920.88
2022-09-16T12:46:23.138Z,99919.63
2022-09-16T12:49:26.949Z,99910.56
2022-09-16T12:52:14.571Z,99924.00
2022-09-16T12:55:11.506Z,99916.59
2022-09-16T12:57:48.229Z,99915.91
2022-09-16T13:00:21.276Z,99919.00
2022-09-16T13:02:52.934Z,99931.50
2022-09-16T13:05:27.192Z,99922.75
2022-09-16T13:08:00.158Z,99920.19
2022-09-16T13:10:54.074Z,99920.16
2022-09-16T13:13:31.139Z,99908.84
2022-09-16T13:16:00.743Z,99912.34
2022-09-16T13:18:42.693Z,99959.19
2022-09-16T13:21:24.265Z,99940.28
2022-09-16T13:23:59.685Z,99956.25
2022-09-16T13:26:27.541Z,99942.22
2022-09-16T13:28:59.018Z,99925.78
2022-09-16T13:31:34.178Z,99924.63
2022-09-16T13:34:17.495Z,99935.84
2022-09-16T13:37:46.887Z,99930.59
2022-09-16T13:40:21.454Z,99913.56
2022-09-16T13:42:50.064Z,99937.13
2022-09-16T13:45:35.687Z,99907.75
2022-09-16T13:48:11.697Z,99934.84
2022-09-16T13:50:42.775Z,99901.06
2022-09-16T13:53:12.349Z,99918.00
2022-09-16T13:55:41.570Z,99903.13
2022-09-16T13:58:19.063Z,99939.84
2022-09-16T14:00:54.866Z,99919.53
2022-09-16T14:03:49.167Z,99921.38
2022-09-16T14:06:49.501Z,99942.25
2022-09-16T14:09:35.324Z,99899.03
2022-09-16T14:12:09.986Z,99905.63
2022-09-16T14:14:47.863Z,99924.44
2022-09-16T14:17:19.109Z,99937.06
2022-09-16T14:19:50.704Z,99908.91
2022-09-16T14:22:23.775Z,99912.59
2022-09-16T14:25:00.681Z,99896.59
2022-09-16T14:27:36.785Z,99899.00
2022-09-16T14:30:06.991Z,99919.75
2022-09-16T14:32:37.868Z,99899.97
2022-09-16T14:35:12.051Z,99903.09
2022-09-16T14:37:41.707Z,99917.88
2022-09-16T14:40:14.608Z,99899.47
2022-09-16T14:42:48.867Z,99893.59
2022-09-16T14:45:17.948Z,99914.22
2022-09-16T14:47:51.483Z,99900.50
2022-09-16T14:50:22.700Z,99902.81
2022-09-16T14:52:58.227Z,99919.47
2022-09-16T14:55:31.335Z,99885.59
2022-09-16T14:57:59.787Z,99901.06
2022-09-16T15:00:32.454Z,99924.66
2022-09-16T15:03:04.112Z,99895.31
2022-09-16T15:05:35.095Z,99910.38
2022-09-16T15:08:14.669Z,99891.88
2022-09-16T15:10:52.523Z,99926.72
2022-09-16T15:13:22.578Z,99925.69
2022-09-16T15:15:53.213Z,99925.91
2022-09-16T15:18:25.482Z,99930.31
2022-09-16T15:20:56.338Z,99896.41
2022-09-16T15:23:28.551Z,99888.66
2022-09-16T15:26:00.796Z,99885.28
2022-09-16T15:28:28.833Z,99910.03
2022-09-16T15:30:59.510Z,99923.72
2022-09-16T15:33:34.694Z,99887.00
2022-09-16T15:36:03.059Z,99894.00
2022-09-16T15:38:35.495Z,99903.41
2022-09-16T15:41:04.961Z,99918.22
2022-09-16T15:43:36.836Z,99908.84
2022-09-16T15:46:09.056Z,99905.56
2022-09-16T15:48:45.623Z,99896.94
2022-09-16T15:51:28.953Z,99916.72
2022-09-16T15:54:04.010Z,99909.44
2022-09-16T15:56:34.683Z,99899.78
2022-09-16T15:59:05.510Z,99941.22
2022-09-16T16:01:41.892Z,99948.34
2022-09-16T16:04:11.224Z,99916.88
2022-09-16T16:06:51.718Z,99928.84
2022-09-16T16:09:42.039Z,99904.13
2022-09-16T16:12:12.658Z,99899.75
2022-09-16T16:14:41.661Z,99918.72
2022-09-16T16:17:13.809Z,99926.81
2022-09-16T16:19:43.004Z,99949.88
2022-09-16T16:22:11.917Z,99928.25
2022-09-16T16:24:41.635Z,99928.53
2022-09-16T16:27:10.657Z,99942.81
2022-09-16T16:29:39.339Z,99942.31
2022-09-16T16:32:09.585Z,99939.78
2022-09-16T16:34:40.538Z,99940.38
2022-09-16T16:37:19.140Z,99935.81
2022-09-16T16:39:59.418Z,99927.19
2022-09-16T16:42:30.782Z,99932.31
2022-09-16T16:44:58.604Z,99938.97
2022-09-16T16:47:26.472Z,99931.91
2022-09-16T16:49:55.118Z,99930.03
2022-09-16T16:52:23.759Z,99925.72
2022-09-16T16:54:52.313Z,99916.50
2022-09-16T16:57:21.607Z,99923.75
2022-09-16T16:59:49.409Z,99927.81
2022-09-16T17:02:17.189Z,99932.09
2022-09-16T17:04:45.566Z,99939.88
2022-09-16T17:07:28.931Z,99945.03
2022-09-16T17:09:58.723Z,99950.97
2022-09-16T17:12:28.357Z,99955.03
2022-09-16T17:14:56.636Z,99960.97
2022-09-16T17:17:31.419Z,99952.78
2022-09-16T17:19:59.927Z,99956.44
2022-09-16T17:22:28.614Z,99948.13
2022-09-16T17:24:56.864Z,99959.09
2022-09-16T17:27:29.732Z,99956.38
2022-09-16T17:30:01.194Z,99955.81
2022-09-16T17:32:29.292Z,99953.09
2022-09-16T17:34:58.122Z,99954.16
2022-09-16T17:37:26.733Z,99950.34
2022-09-16T17:39:58.292Z,99952.19
2022-09-16T17:42:29.269Z,99954.09
2022-09-16T17:44:57.083Z,99956.50
2022-09-16T17:47:25.292Z,99962.19
2022-09-16T17:49:53.723Z,99963.81
2022-09-16T17:52:22.021Z,99969.22
2022-09-16T17:54:51.680Z,99985.28
2022-09-16T17:57:21.348Z,99998.91
2022-09-16T17:59:50.489Z,100003.13
2022-09-16T18:02:18.369Z,100013.53
2022-09-16T18:04:48.049Z,100001.59
2022-09-16T18:07:16.128Z,99995.41
2022-09-16T18:09:44.367Z,99992.84
2022-09-16T18:12:13.474Z,99975.94
2022-09-16T18:14:41.865Z,99979.47
2022-09-16T18:17:14.338Z,99975.63
2022-09-16T18:19:42.170Z,99985.34
2022-09-16T18:22:10.613Z,99974.66
2022-09-16T18:24:38.709Z,99973.97
2022-09-16T18:27:06.684Z,99968.31
2022-09-16T18:29:36.852Z,99972.72
2022-09-16T18:32:04.833Z,99972.25
2022-09-16T18:34:35.683Z,99973.13
2022-09-16T18:37:03.630Z,99976.31
2022-09-16T18:39:31.403Z,99979.91
2022-09-16T18:41:59.660Z,99976.69
2022-09-16T18:44:28.862Z,99985.59
2022-09-16T18:46:58.038Z,99984.59
2022-09-16T18:53:07.622Z,99982.47
2022-09-16T18:55:36.164Z,99991.44
2022-09-16T18:58:04.030Z,99985.50
2022-09-16T19:00:32.428Z,100000.41
2022-09-16T19:03:00.077Z,99990.34
2022-09-16T19:05:29.600Z,99986.34
2022-09-16T19:07:57.376Z,99989.56
2022-09-16T19:10:27.186Z,99992.50
2022-09-16T19:12:56.666Z,99992.25
2022-09-16T19:15:25.313Z,99999.44
2022-09-16T19:17:53.984Z,100001.56
2022-09-16T19:20:22.296Z,99996.69
2022-09-16T19:22:50.122Z,99999.94
2022-09-16T19:25:20.774Z,99995.13
2022-09-16T19:27:50.438Z,100010.72
2022-09-16T19:30:18.806Z,100013.66
2022-09-16T19:32:47.412Z,100012.00
2022-09-16T19:35:16.754Z,100003.13
2022-09-16T19:37:44.560Z,100011.06
2022-09-16T19:40:12.725Z,100005.66
2022-09-16T19:42:41.095Z,100006.81
2022-09-16T19:45:11.172Z,100003.53
2022-09-16T19:47:39.305Z,100012.06
2022-09-16T19:50:07.537Z,100011.06
2022-09-16T19:52:37.875Z,100008.91
2022-09-16T19:55:06.494Z,100016.63
2022-09-16T19:57:35.334Z,100003.38
2022-09-16T20:00:03.716Z,100012.78
2022-09-16T20:02:34.044Z,100013.38
2022-09-16T20:05:04.978Z,100018.91
2022-09-16T20:07:37.766Z,100021.50
2022-09-16T20:11:09.811Z,100023.81
2022-09-16T20:13:38.390Z,100017.63
2022-09-16T20:16:09.076Z,100016.94
2022-09-16T20:18:39.277Z,100017.53
2022-09-16T20:21:10.178Z,100014.84
2022-09-16T20:23:38.371Z,100013.53
2022-09-16T20:27:07.654Z,100013.38
2022-09-16T20:29:36.212Z,100016.63
2022-09-16T20:32:04.252Z,100021.22
2022-09-16T20:34:35.606Z,100022.50
2022-09-16T20:37:04.449Z,100028.94
2022-09-16T20:39:34.100Z,100035.78
2022-09-16T20:42:01.966Z,100029.53
2022-09-16T20:44:29.631Z,100035.81
2022-09-16T20:46:57.878Z,100043.72
2022-09-16T20:50:27.342Z,100041.31
2022-09-16T20:52:57.539Z,100040.47
2022-09-16T20:56:37.398Z,100050.28
2022-09-16T20:59:07.348Z,100063.16
2022-09-16T21:01:36.885Z,100065.34
2022-09-16T21:04:06.987Z,100063.25
2022-09-16T21:06:35.758Z,100060.44
2022-09-16T21:09:08.434Z,100066.97
2022-09-16T21:11:37.353Z,100069.09
2022-09-16T21:14:07.608Z,100071.44
2022-09-16T21:16:37.034Z,100072.38
2022-09-16T21:19:09.355Z,100083.53
2022-09-16T21:21:39.533Z,100072.81
2022-09-16T21:24:10.049Z,100091.47
2022-09-16T21:26:40.457Z,100086.56
2022-09-16T21:29:11.083Z,100083.31
2022-09-16T21:31:41.143Z,100084.50
2022-09-16T21:34:12.834Z,100085.66
2022-09-16T21:36:41.061Z,100083.75
2022-09-16T21:39:14.279Z,100082.25
2022-09-16T21:41:42.556Z,100084.72
2022-09-16T21:44:10.831Z,100084.72
2022-09-16T21:46:41.220Z,100075.25
2022-09-16T21:49:14.306Z,100086.78
2022-09-16T21:51:42.131Z,100087.75
2022-09-16T21:54:16.603Z,100090.19
2022-09-16T21:56:47.687Z,100089.34
2022-09-16T21:59:15.578Z,100084.47
2022-09-16T22:01:44.384Z,100085.75
2022-09-16T22:04:13.859Z,100084.47
2022-09-16T22:06:41.943Z,100088.66
2022-09-16T22:09:12.441Z,100094.03
2022-09-16T22:11:42.354Z,100084.81
2022-09-16T22:14:11.281Z,100093.19
2022-09-16T22:16:40.382Z,100094.59
2022-09-16T22:19:11.244Z,100092.63
2022-09-16T22:21:40.931Z,100093.44
2022-09-16T22:24:09.547Z,100100.88
2022-09-16T22:26:39.643Z,100087.94
2022-09-16T22:29:09.389Z,100081.63
2022-09-16T22:31:39.465Z,100084.31
2022-09-16T22:34:08.778Z,100091.41
2022-09-16T22:36:37.965Z,100080.69
2022-09-16T22:39:08.980Z,100081.63
2022-09-16T22:41:42.350Z,100080.47
2022-09-16T22:44:10.558Z,100083.28
2022-09-16T22:46:41.461Z,100076.72
2022-09-16T22:49:09.450Z,100083.63
2022-09-16T22:51:38.021Z,100095.50
2022-09-16T22:54:06.489Z,100097.41
2022-09-16T22:56:34.557Z,100097.72
2022-09-16T22:59:08.601Z,100096.78
2022-09-16T23:01:39.003Z,100084.06
2022-09-16T23:04:08.009Z,100103.09
2022-09-16T23:06:37.784Z,100091.16
2022-09-16T23:09:06.599Z,100091.78
2022-09-16T23:11:36.356Z,100088.16
2022-09-16T23:14:06.384Z,100093.53
2022-09-16T23:16:36.598Z,100093.91
2022-09-16T23:19:06.077Z,100093.66
2022-09-16T23:21:36.466Z,100093.06
2022-09-16T23:24:07.232Z,100089.34
2022-09-16T23:26:37.701Z,100084.31
2022-09-16T23:29:08.447Z,100086.66
2022-09-16T23:31:39.823Z,100100.66
2022-09-16T23:34:08.632Z,100096.78
2022-09-16T23:36:37.931Z,100090.84
2022-09-16T23:39:06.319Z,100086.53
2022-09-16T23:42:35.696Z,100083.94
2022-09-16T23:46:05.113Z,100092.44
2022-09-16T23:48:36.090Z,100097.03
2022-09-16T23:51:04.508Z,100088.34
2022-09-16T23:53:34.594Z,100090.47
2022-09-16T23:56:05.755Z,100101.19
2022-09-16T23:58:33.864Z,100099.09
